sensor_id;sensor_type;location;lat;lon;timestamp;temperature;humidity
5697;DHT22;2873;50.966;7.210;2023-12-20T00:01:16;8.30;99.90
5697;DHT22;2873;50.966;7.210;2023-12-20T00:03:41;8.30;99.90
5697;DHT22;2873;50.966;7.210;2023-12-20T00:06:07;8.30;99.90
5697;DHT22;2873;50.966;7.210;2023-12-20T00:08:32;8.30;99.90
5697;DHT22;2873;50.966;7.210;2023-12-20T00:10:58;8.20;99.90
5697;DHT22;2873;50.966;7.210;2023-12-20T00:13:23;8.20;99.90
5697;DHT22;2873;50.966;7.210;2023-12-20T00:15:49;8.20;99.90
5697;DHT22;2873;50.966;7.210;2023-12-20T00:18:14;8.30;99.90
5697;DHT22;2873;50.966;7.210;2023-12-20T00:20:40;8.30;99.90
5697;DHT22;2873;50.966;7.210;2023-12-20T00:23:05;8.30;99.90
5697;DHT22;2873;50.966;7.210;2023-12-20T00:25:31;8.30;99.90
5697;DHT22;2873;50.966;7.210;2023-12-20T00:27:56;8.30;99.90
5697;DHT22;2873;50.966;7.210;2023-12-20T00:30:22;8.30;99.90
5697;DHT22;2873;50.966;7.210;2023-12-20T00:32:47;8.20;99.90
5697;DHT22;2873;50.966;7.210;2023-12-20T00:35:13;8.10;99.90
5697;DHT22;2873;50.966;7.210;2023-12-20T00:37:39;8.20;99.90
5697;DHT22;2873;50.966;7.210;2023-12-20T00:40:04;8.20;99.90
5697;DHT22;2873;50.966;7.210;2023-12-20T00:42:32;8.20;99.90
5697;DHT22;2873;50.966;7.210;2023-12-20T00:44:58;8.10;99.90
5697;DHT22;2873;50.966;7.210;2023-12-20T00:47:24;8.10;99.90
5697;DHT22;2873;50.966;7.210;2023-12-20T00:49:49;8.10;99.90
5697;DHT22;2873;50.966;7.210;2023-12-20T00:52:14;8.10;99.90
5697;DHT22;2873;50.966;7.210;2023-12-20T00:54:42;8.20;99.90
5697;DHT22;2873;50.966;7.210;2023-12-20T00:57:07;8.20;99.90
5697;DHT22;2873;50.966;7.210;2023-12-20T00:59:33;8.30;99.90
5697;DHT22;2873;50.966;7.210;2023-12-20T01:01:58;8.30;99.90
5697;DHT22;2873;50.966;7.210;2023-12-20T01:04:23;8.40;99.90
5697;DHT22;2873;50.966;7.210;2023-12-20T01:06:49;8.40;99.90
5697;DHT22;2873;50.966;7.210;2023-12-20T01:09:14;8.40;99.90
5697;DHT22;2873;50.966;7.210;2023-12-20T01:11:40;8.50;99.90
5697;DHT22;2873;50.966;7.210;2023-12-20T01:14:05;8.50;99.90
5697;DHT22;2873;50.966;7.210;2023-12-20T01:16:31;8.40;99.90
5697;DHT22;2873;50.966;7.210;2023-12-20T01:18:56;8.40;99.90
5697;DHT22;2873;50.966;7.210;2023-12-20T01:21:22;8.50;99.90
5697;DHT22;2873;50.966;7.210;2023-12-20T01:23:47;8.40;99.90
5697;DHT22;2873;50.966;7.210;2023-12-20T01:26:13;8.40;99.90
5697;DHT22;2873;50.966;7.210;2023-12-20T01:28:39;8.40;99.90
5697;DHT22;2873;50.966;7.210;2023-12-20T01:31:05;8.30;99.90
5697;DHT22;2873;50.966;7.210;2023-12-20T01:33:30;8.30;99.90
5697;DHT22;2873;50.966;7.210;2023-12-20T01:35:56;8.30;99.90
5697;DHT22;2873;50.966;7.210;2023-12-20T01:38:21;8.30;99.90
5697;DHT22;2873;50.966;7.210;2023-12-20T01:40:47;8.40;99.90
5697;DHT22;2873;50.966;7.210;2023-12-20T01:43:12;8.40;99.90
5697;DHT22;2873;50.966;7.210;2023-12-20T01:45:38;8.30;99.90
5697;DHT22;2873;50.966;7.210;2023-12-20T01:48:03;8.20;99.90
5697;DHT22;2873;50.966;7.210;2023-12-20T01:50:30;8.20;99.90
5697;DHT22;2873;50.966;7.210;2023-12-20T01:52:56;8.10;99.90
5697;DHT22;2873;50.966;7.210;2023-12-20T01:55:23;8.30;99.90
5697;DHT22;2873;50.966;7.210;2023-12-20T01:57:48;8.30;99.90
5697;DHT22;2873;50.966;7.210;2023-12-20T02:00:14;8.10;99.90
5697;DHT22;2873;50.966;7.210;2023-12-20T02:02:40;8.30;99.90
5697;DHT22;2873;50.966;7.210;2023-12-20T02:05:06;8.30;99.90
5697;DHT22;2873;50.966;7.210;2023-12-20T02:07:31;8.30;99.90
5697;DHT22;2873;50.966;7.210;2023-12-20T02:09:57;8.20;99.90
5697;DHT22;2873;50.966;7.210;2023-12-20T02:12:24;8.20;99.90
5697;DHT22;2873;50.966;7.210;2023-12-20T02:14:50;8.10;99.90
5697;DHT22;2873;50.966;7.210;2023-12-20T02:17:16;8.10;99.90
5697;DHT22;2873;50.966;7.210;2023-12-20T02:19:41;8.20;99.90
5697;DHT22;2873;50.966;7.210;2023-12-20T02:22:10;8.20;99.90
5697;DHT22;2873;50.966;7.210;2023-12-20T02:24:41;8.00;99.90
5697;DHT22;2873;50.966;7.210;2023-12-20T02:27:07;8.00;99.90
5697;DHT22;2873;50.966;7.210;2023-12-20T02:29:33;7.90;99.90
5697;DHT22;2873;50.966;7.210;2023-12-20T02:31:59;8.00;99.90
5697;DHT22;2873;50.966;7.210;2023-12-20T02:34:24;7.90;99.90
5697;DHT22;2873;50.966;7.210;2023-12-20T02:36:50;7.80;99.90
5697;DHT22;2873;50.966;7.210;2023-12-20T02:39:15;7.60;99.90
5697;DHT22;2873;50.966;7.210;2023-12-20T02:41:41;7.50;99.90
5697;DHT22;2873;50.966;7.210;2023-12-20T02:44:06;7.70;99.90
5697;DHT22;2873;50.966;7.210;2023-12-20T02:46:32;7.40;99.90
5697;DHT22;2873;50.966;7.210;2023-12-20T02:48:57;7.50;99.90
5697;DHT22;2873;50.966;7.210;2023-12-20T02:51:23;7.40;99.90
5697;DHT22;2873;50.966;7.210;2023-12-20T02:53:48;7.50;99.90
5697;DHT22;2873;50.966;7.210;2023-12-20T02:56:14;7.30;99.90
5697;DHT22;2873;50.966;7.210;2023-12-20T02:58:39;7.40;99.90
5697;DHT22;2873;50.966;7.210;2023-12-20T03:01:05;7.50;99.90
5697;DHT22;2873;50.966;7.210;2023-12-20T03:03:31;7.40;99.90
5697;DHT22;2873;50.966;7.210;2023-12-20T03:05:56;7.30;99.90
5697;DHT22;2873;50.966;7.210;2023-12-20T03:08:22;7.30;99.90
5697;DHT22;2873;50.966;7.210;2023-12-20T03:10:47;7.10;99.90
5697;DHT22;2873;50.966;7.210;2023-12-20T03:13:13;7.30;99.90
5697;DHT22;2873;50.966;7.210;2023-12-20T03:15:38;7.10;99.90
5697;DHT22;2873;50.966;7.210;2023-12-20T03:18:04;7.10;99.90
5697;DHT22;2873;50.966;7.210;2023-12-20T03:20:29;7.10;99.90
5697;DHT22;2873;50.966;7.210;2023-12-20T03:22:58;7.30;99.90
5697;DHT22;2873;50.966;7.210;2023-12-20T03:25:23;7.00;99.90
5697;DHT22;2873;50.966;7.210;2023-12-20T03:27:49;7.20;99.90
5697;DHT22;2873;50.966;7.210;2023-12-20T03:30:14;7.10;99.90
5697;DHT22;2873;50.966;7.210;2023-12-20T03:32:40;7.10;99.90
5697;DHT22;2873;50.966;7.210;2023-12-20T03:35:05;7.10;99.90
5697;DHT22;2873;50.966;7.210;2023-12-20T03:37:31;7.00;99.90
5697;DHT22;2873;50.966;7.210;2023-12-20T03:39:56;7.20;99.90
5697;DHT22;2873;50.966;7.210;2023-12-20T03:42:22;7.00;99.90
5697;DHT22;2873;50.966;7.210;2023-12-20T03:44:47;7.00;99.90
5697;DHT22;2873;50.966;7.210;2023-12-20T03:47:12;7.00;99.90
5697;DHT22;2873;50.966;7.210;2023-12-20T03:49:38;6.90;99.90
5697;DHT22;2873;50.966;7.210;2023-12-20T03:52:04;7.10;99.90
5697;DHT22;2873;50.966;7.210;2023-12-20T03:54:29;7.00;99.90
5697;DHT22;2873;50.966;7.210;2023-12-20T03:56:55;7.10;99.90
5697;DHT22;2873;50.966;7.210;2023-12-20T03:59:20;7.00;99.90
5697;DHT22;2873;50.966;7.210;2023-12-20T04:01:46;6.90;99.90
5697;DHT22;2873;50.966;7.210;2023-12-20T04:04:13;7.00;99.90
5697;DHT22;2873;50.966;7.210;2023-12-20T04:06:38;6.80;99.90
5697;DHT22;2873;50.966;7.210;2023-12-20T04:09:04;7.00;99.90
5697;DHT22;2873;50.966;7.210;2023-12-20T04:11:29;6.90;99.90
5697;DHT22;2873;50.966;7.210;2023-12-20T04:13:55;6.80;99.90
5697;DHT22;2873;50.966;7.210;2023-12-20T04:16:21;6.90;99.90
5697;DHT22;2873;50.966;7.210;2023-12-20T04:18:46;6.90;99.90
5697;DHT22;2873;50.966;7.210;2023-12-20T04:21:11;6.90;99.90
5697;DHT22;2873;50.966;7.210;2023-12-20T04:23:37;7.00;99.90
5697;DHT22;2873;50.966;7.210;2023-12-20T04:26:02;6.90;99.90
5697;DHT22;2873;50.966;7.210;2023-12-20T04:28:28;6.90;99.90
5697;DHT22;2873;50.966;7.210;2023-12-20T04:30:55;6.90;99.90
5697;DHT22;2873;50.966;7.210;2023-12-20T04:33:21;6.90;99.90
5697;DHT22;2873;50.966;7.210;2023-12-20T04:35:46;7.00;99.90
5697;DHT22;2873;50.966;7.210;2023-12-20T04:38:12;7.00;99.90
5697;DHT22;2873;50.966;7.210;2023-12-20T04:40:37;6.90;99.90
5697;DHT22;2873;50.966;7.210;2023-12-20T04:43:04;6.80;99.90
5697;DHT22;2873;50.966;7.210;2023-12-20T04:45:29;6.80;99.90
5697;DHT22;2873;50.966;7.210;2023-12-20T04:47:55;7.00;99.90
5697;DHT22;2873;50.966;7.210;2023-12-20T04:50:20;6.80;99.90
5697;DHT22;2873;50.966;7.210;2023-12-20T04:52:46;6.70;99.90
5697;DHT22;2873;50.966;7.210;2023-12-20T04:55:12;6.90;99.90
5697;DHT22;2873;50.966;7.210;2023-12-20T04:57:37;6.80;99.90
5697;DHT22;2873;50.966;7.210;2023-12-20T05:00:03;6.80;99.90
5697;DHT22;2873;50.966;7.210;2023-12-20T05:02:30;6.80;99.90
5697;DHT22;2873;50.966;7.210;2023-12-20T05:04:55;6.80;99.90
5697;DHT22;2873;50.966;7.210;2023-12-20T05:07:20;6.90;99.90
5697;DHT22;2873;50.966;7.210;2023-12-20T05:09:46;6.80;99.90
5697;DHT22;2873;50.966;7.210;2023-12-20T05:12:11;6.80;99.90
5697;DHT22;2873;50.966;7.210;2023-12-20T05:14:37;6.90;99.90
5697;DHT22;2873;50.966;7.210;2023-12-20T05:17:02;6.80;99.90
5697;DHT22;2873;50.966;7.210;2023-12-20T05:19:28;6.90;99.90
5697;DHT22;2873;50.966;7.210;2023-12-20T05:21:53;6.80;99.90
5697;DHT22;2873;50.966;7.210;2023-12-20T05:24:19;6.90;99.90
5697;DHT22;2873;50.966;7.210;2023-12-20T05:26:44;6.70;99.90
5697;DHT22;2873;50.966;7.210;2023-12-20T05:29:10;6.60;99.90
5697;DHT22;2873;50.966;7.210;2023-12-20T05:31:35;6.70;99.90
5697;DHT22;2873;50.966;7.210;2023-12-20T05:34:01;6.60;99.90
5697;DHT22;2873;50.966;7.210;2023-12-20T05:36:26;6.60;99.90
5697;DHT22;2873;50.966;7.210;2023-12-20T05:38:52;6.70;99.90
5697;DHT22;2873;50.966;7.210;2023-12-20T05:41:17;6.60;99.90
5697;DHT22;2873;50.966;7.210;2023-12-20T05:43:42;6.60;99.90
5697;DHT22;2873;50.966;7.210;2023-12-20T05:46:09;6.60;99.90
5697;DHT22;2873;50.966;7.210;2023-12-20T05:48:35;6.60;99.90
5697;DHT22;2873;50.966;7.210;2023-12-20T05:51:00;6.60;99.90
5697;DHT22;2873;50.966;7.210;2023-12-20T05:53:26;6.60;99.90
5697;DHT22;2873;50.966;7.210;2023-12-20T05:55:51;6.70;99.90
5697;DHT22;2873;50.966;7.210;2023-12-20T05:58:17;6.70;99.90
5697;DHT22;2873;50.966;7.210;2023-12-20T06:00:42;6.70;99.90
5697;DHT22;2873;50.966;7.210;2023-12-20T06:03:08;6.60;99.90
5697;DHT22;2873;50.966;7.210;2023-12-20T06:05:33;6.70;99.90
5697;DHT22;2873;50.966;7.210;2023-12-20T06:07:58;6.70;99.90
5697;DHT22;2873;50.966;7.210;2023-12-20T06:10:28;6.60;99.90
5697;DHT22;2873;50.966;7.210;2023-12-20T06:12:53;6.60;99.90
5697;DHT22;2873;50.966;7.210;2023-12-20T06:15:19;6.50;99.90
5697;DHT22;2873;50.966;7.210;2023-12-20T06:17:45;6.50;99.90
5697;DHT22;2873;50.966;7.210;2023-12-20T06:20:12;6.60;99.90
5697;DHT22;2873;50.966;7.210;2023-12-20T06:22:38;6.40;99.90
5697;DHT22;2873;50.966;7.210;2023-12-20T06:25:04;6.40;99.90
5697;DHT22;2873;50.966;7.210;2023-12-20T06:27:30;6.50;99.90
5697;DHT22;2873;50.966;7.210;2023-12-20T06:29:57;6.50;99.90
5697;DHT22;2873;50.966;7.210;2023-12-20T06:32:23;6.50;99.90
5697;DHT22;2873;50.966;7.210;2023-12-20T06:34:48;6.50;99.90
5697;DHT22;2873;50.966;7.210;2023-12-20T06:37:14;6.60;99.90
5697;DHT22;2873;50.966;7.210;2023-12-20T06:39:40;6.70;99.90
5697;DHT22;2873;50.966;7.210;2023-12-20T06:42:06;6.80;99.90
5697;DHT22;2873;50.966;7.210;2023-12-20T06:44:31;6.60;99.90
5697;DHT22;2873;50.966;7.210;2023-12-20T06:46:57;6.60;99.90
5697;DHT22;2873;50.966;7.210;2023-12-20T06:49:23;6.60;99.90
5697;DHT22;2873;50.966;7.210;2023-12-20T06:51:48;6.70;99.90
5697;DHT22;2873;50.966;7.210;2023-12-20T06:54:14;6.70;99.90
5697;DHT22;2873;50.966;7.210;2023-12-20T06:56:39;6.70;99.90
5697;DHT22;2873;50.966;7.210;2023-12-20T06:59:05;6.70;99.90
5697;DHT22;2873;50.966;7.210;2023-12-20T07:01:31;6.60;99.90
5697;DHT22;2873;50.966;7.210;2023-12-20T07:03:57;6.50;99.90
5697;DHT22;2873;50.966;7.210;2023-12-20T07:06:22;6.60;99.90
5697;DHT22;2873;50.966;7.210;2023-12-20T07:08:48;6.70;99.90
5697;DHT22;2873;50.966;7.210;2023-12-20T07:11:13;6.60;99.90
5697;DHT22;2873;50.966;7.210;2023-12-20T07:13:39;6.70;99.90
5697;DHT22;2873;50.966;7.210;2023-12-20T07:16:04;6.70;99.90
5697;DHT22;2873;50.966;7.210;2023-12-20T07:18:30;6.80;99.90
5697;DHT22;2873;50.966;7.210;2023-12-20T07:20:55;7.00;99.90
5697;DHT22;2873;50.966;7.210;2023-12-20T07:23:21;6.90;99.90
5697;DHT22;2873;50.966;7.210;2023-12-20T07:25:46;6.90;99.90
5697;DHT22;2873;50.966;7.210;2023-12-20T07:28:12;7.00;99.90
5697;DHT22;2873;50.966;7.210;2023-12-20T07:30:37;7.10;99.90
5697;DHT22;2873;50.966;7.210;2023-12-20T07:33:03;6.90;99.90
5697;DHT22;2873;50.966;7.210;2023-12-20T07:35:28;7.00;99.90
5697;DHT22;2873;50.966;7.210;2023-12-20T07:37:54;6.70;99.90
5697;DHT22;2873;50.966;7.210;2023-12-20T07:40:19;6.80;99.90
5697;DHT22;2873;50.966;7.210;2023-12-20T07:42:45;6.90;99.90
5697;DHT22;2873;50.966;7.210;2023-12-20T07:45:10;7.00;99.90
5697;DHT22;2873;50.966;7.210;2023-12-20T07:47:37;7.00;99.90
5697;DHT22;2873;50.966;7.210;2023-12-20T07:50:02;6.90;99.90
5697;DHT22;2873;50.966;7.210;2023-12-20T07:52:28;6.90;99.90
5697;DHT22;2873;50.966;7.210;2023-12-20T07:54:54;6.90;99.90
5697;DHT22;2873;50.966;7.210;2023-12-20T07:57:20;6.80;99.90
5697;DHT22;2873;50.966;7.210;2023-12-20T07:59:45;6.80;99.90
5697;DHT22;2873;50.966;7.210;2023-12-20T08:02:11;6.90;99.90
5697;DHT22;2873;50.966;7.210;2023-12-20T08:04:36;7.00;99.90
5697;DHT22;2873;50.966;7.210;2023-12-20T08:07:01;6.90;99.90
5697;DHT22;2873;50.966;7.210;2023-12-20T08:09:27;6.90;99.90
5697;DHT22;2873;50.966;7.210;2023-12-20T08:11:52;7.10;99.90
5697;DHT22;2873;50.966;7.210;2023-12-20T08:14:18;6.90;99.90
5697;DHT22;2873;50.966;7.210;2023-12-20T08:16:43;6.80;99.90
5697;DHT22;2873;50.966;7.210;2023-12-20T08:19:09;6.70;99.90
5697;DHT22;2873;50.966;7.210;2023-12-20T08:21:34;6.70;99.90
5697;DHT22;2873;50.966;7.210;2023-12-20T08:24:00;6.80;99.90
5697;DHT22;2873;50.966;7.210;2023-12-20T08:26:28;6.90;99.90
5697;DHT22;2873;50.966;7.210;2023-12-20T08:28:53;6.80;99.90
5697;DHT22;2873;50.966;7.210;2023-12-20T08:31:19;6.90;99.90
5697;DHT22;2873;50.966;7.210;2023-12-20T08:33:45;6.80;99.90
5697;DHT22;2873;50.966;7.210;2023-12-20T08:36:11;6.80;99.90
5697;DHT22;2873;50.966;7.210;2023-12-20T08:38:36;7.00;99.90
5697;DHT22;2873;50.966;7.210;2023-12-20T08:41:02;7.00;99.90
5697;DHT22;2873;50.966;7.210;2023-12-20T08:43:28;7.00;99.90
5697;DHT22;2873;50.966;7.210;2023-12-20T08:45:54;6.90;99.90
5697;DHT22;2873;50.966;7.210;2023-12-20T08:48:19;7.00;99.90
5697;DHT22;2873;50.966;7.210;2023-12-20T08:50:45;6.90;99.90
5697;DHT22;2873;50.966;7.210;2023-12-20T08:53:11;6.80;99.90
5697;DHT22;2873;50.966;7.210;2023-12-20T08:55:37;6.90;99.90
5697;DHT22;2873;50.966;7.210;2023-12-20T08:58:02;6.90;99.90
5697;DHT22;2873;50.966;7.210;2023-12-20T09:00:28;6.90;99.90
5697;DHT22;2873;50.966;7.210;2023-12-20T09:02:54;7.00;99.90
5697;DHT22;2873;50.966;7.210;2023-12-20T09:05:20;6.80;99.90
5697;DHT22;2873;50.966;7.210;2023-12-20T09:07:45;6.90;99.90
5697;DHT22;2873;50.966;7.210;2023-12-20T09:10:11;6.90;99.90
5697;DHT22;2873;50.966;7.210;2023-12-20T09:12:36;6.90;99.90
5697;DHT22;2873;50.966;7.210;2023-12-20T09:15:05;6.80;99.90
5697;DHT22;2873;50.966;7.210;2023-12-20T09:17:30;6.90;99.90
5697;DHT22;2873;50.966;7.210;2023-12-20T09:19:56;6.80;99.90
5697;DHT22;2873;50.966;7.210;2023-12-20T09:22:21;7.00;99.90
5697;DHT22;2873;50.966;7.210;2023-12-20T09:24:47;6.80;99.90
5697;DHT22;2873;50.966;7.210;2023-12-20T09:27:12;6.80;99.90
5697;DHT22;2873;50.966;7.210;2023-12-20T09:29:38;6.80;99.90
5697;DHT22;2873;50.966;7.210;2023-12-20T09:32:03;6.80;99.90
5697;DHT22;2873;50.966;7.210;2023-12-20T09:34:29;6.70;99.90
5697;DHT22;2873;50.966;7.210;2023-12-20T09:36:54;6.80;99.90
5697;DHT22;2873;50.966;7.210;2023-12-20T09:39:21;6.80;99.90
5697;DHT22;2873;50.966;7.210;2023-12-20T09:42:00;6.70;99.90
5697;DHT22;2873;50.966;7.210;2023-12-20T09:44:26;6.80;99.90
5697;DHT22;2873;50.966;7.210;2023-12-20T09:46:51;6.70;99.90
5697;DHT22;2873;50.966;7.210;2023-12-20T09:49:18;6.80;99.90
5697;DHT22;2873;50.966;7.210;2023-12-20T09:51:44;7.00;99.90
5697;DHT22;2873;50.966;7.210;2023-12-20T09:54:12;6.90;99.90
5697;DHT22;2873;50.966;7.210;2023-12-20T09:56:39;6.90;99.90
5697;DHT22;2873;50.966;7.210;2023-12-20T09:59:04;6.90;99.90
5697;DHT22;2873;50.966;7.210;2023-12-20T10:01:30;6.80;99.90
5697;DHT22;2873;50.966;7.210;2023-12-20T10:03:55;7.00;99.90
5697;DHT22;2873;50.966;7.210;2023-12-20T10:06:21;7.00;99.90
5697;DHT22;2873;50.966;7.210;2023-12-20T10:08:47;7.00;99.90
5697;DHT22;2873;50.966;7.210;2023-12-20T10:11:12;7.00;99.90
5697;DHT22;2873;50.966;7.210;2023-12-20T10:13:39;6.90;99.90
5697;DHT22;2873;50.966;7.210;2023-12-20T10:16:06;6.90;99.90
5697;DHT22;2873;50.966;7.210;2023-12-20T10:18:32;6.90;99.90
5697;DHT22;2873;50.966;7.210;2023-12-20T10:20:58;6.90;99.90
5697;DHT22;2873;50.966;7.210;2023-12-20T10:23:23;6.80;99.90
5697;DHT22;2873;50.966;7.210;2023-12-20T10:25:55;6.90;99.90
5697;DHT22;2873;50.966;7.210;2023-12-20T10:28:21;6.90;99.90
5697;DHT22;2873;50.966;7.210;2023-12-20T10:30:48;7.00;99.90
5697;DHT22;2873;50.966;7.210;2023-12-20T10:33:15;7.00;99.90
5697;DHT22;2873;50.966;7.210;2023-12-20T10:35:48;6.90;99.90
5697;DHT22;2873;50.966;7.210;2023-12-20T10:38:13;6.90;99.90
5697;DHT22;2873;50.966;7.210;2023-12-20T10:40:40;6.90;99.90
5697;DHT22;2873;50.966;7.210;2023-12-20T10:43:05;6.80;99.90
5697;DHT22;2873;50.966;7.210;2023-12-20T10:45:31;6.90;99.90
5697;DHT22;2873;50.966;7.210;2023-12-20T10:47:57;6.90;99.90
5697;DHT22;2873;50.966;7.210;2023-12-20T10:50:24;6.90;99.90
5697;DHT22;2873;50.966;7.210;2023-12-20T10:52:50;6.80;99.90
5697;DHT22;2873;50.966;7.210;2023-12-20T10:55:21;6.80;99.90
5697;DHT22;2873;50.966;7.210;2023-12-20T10:57:46;6.80;99.90
5697;DHT22;2873;50.966;7.210;2023-12-20T11:00:16;6.90;99.90
5697;DHT22;2873;50.966;7.210;2023-12-20T11:02:43;6.80;99.90
5697;DHT22;2873;50.966;7.210;2023-12-20T11:07:48;6.90;99.90
5697;DHT22;2873;50.966;7.210;2023-12-20T11:13:17;6.90;99.90
5697;DHT22;2873;50.966;7.210;2023-12-20T11:15:45;6.90;99.90
5697;DHT22;2873;50.966;7.210;2023-12-20T11:18:11;6.90;99.90
5697;DHT22;2873;50.966;7.210;2023-12-20T11:20:37;6.80;99.90
5697;DHT22;2873;50.966;7.210;2023-12-20T11:23:03;6.80;99.90
5697;DHT22;2873;50.966;7.210;2023-12-20T11:25:28;6.90;99.90
5697;DHT22;2873;50.966;7.210;2023-12-20T11:28:10;6.90;99.90
5697;DHT22;2873;50.966;7.210;2023-12-20T11:30:40;7.00;99.90
5697;DHT22;2873;50.966;7.210;2023-12-20T11:33:07;7.00;99.90
5697;DHT22;2873;50.966;7.210;2023-12-20T11:35:33;7.00;99.90
5697;DHT22;2873;50.966;7.210;2023-12-20T11:38:00;6.90;99.90
5697;DHT22;2873;50.966;7.210;2023-12-20T11:40:26;7.00;99.90
5697;DHT22;2873;50.966;7.210;2023-12-20T11:42:52;7.00;99.90
5697;DHT22;2873;50.966;7.210;2023-12-20T11:45:20;6.90;99.90
5697;DHT22;2873;50.966;7.210;2023-12-20T11:47:47;6.90;99.90
5697;DHT22;2873;50.966;7.210;2023-12-20T11:50:15;6.90;99.90
5697;DHT22;2873;50.966;7.210;2023-12-20T11:52:40;6.90;99.90
5697;DHT22;2873;50.966;7.210;2023-12-20T11:55:06;7.00;99.90
5697;DHT22;2873;50.966;7.210;2023-12-20T11:57:33;6.90;99.90
5697;DHT22;2873;50.966;7.210;2023-12-20T11:59:59;7.10;99.90
5697;DHT22;2873;50.966;7.210;2023-12-20T12:02:24;7.00;99.90
5697;DHT22;2873;50.966;7.210;2023-12-20T12:04:50;7.10;99.90
5697;DHT22;2873;50.966;7.210;2023-12-20T12:07:18;7.10;99.90
5697;DHT22;2873;50.966;7.210;2023-12-20T12:09:44;7.00;99.90
5697;DHT22;2873;50.966;7.210;2023-12-20T12:12:10;7.00;99.90
5697;DHT22;2873;50.966;7.210;2023-12-20T12:14:36;7.00;99.90
5697;DHT22;2873;50.966;7.210;2023-12-20T12:17:02;7.00;99.90
5697;DHT22;2873;50.966;7.210;2023-12-20T12:19:28;7.10;99.90
5697;DHT22;2873;50.966;7.210;2023-12-20T12:22:04;7.10;99.90
5697;DHT22;2873;50.966;7.210;2023-12-20T12:24:31;7.10;99.90
5697;DHT22;2873;50.966;7.210;2023-12-20T12:26:57;7.00;99.90
5697;DHT22;2873;50.966;7.210;2023-12-20T12:29:22;7.00;99.90
5697;DHT22;2873;50.966;7.210;2023-12-20T12:31:50;7.20;99.90
5697;DHT22;2873;50.966;7.210;2023-12-20T12:34:15;7.10;99.90
5697;DHT22;2873;50.966;7.210;2023-12-20T12:36:41;7.20;99.90
5697;DHT22;2873;50.966;7.210;2023-12-20T12:39:07;7.10;99.90
5697;DHT22;2873;50.966;7.210;2023-12-20T12:41:32;7.00;99.90
5697;DHT22;2873;50.966;7.210;2023-12-20T12:43:58;7.10;99.90
5697;DHT22;2873;50.966;7.210;2023-12-20T12:46:23;7.00;99.90
5697;DHT22;2873;50.966;7.210;2023-12-20T12:48:49;7.00;99.90
5697;DHT22;2873;50.966;7.210;2023-12-20T12:51:15;7.00;99.90
5697;DHT22;2873;50.966;7.210;2023-12-20T12:53:41;7.00;99.90
5697;DHT22;2873;50.966;7.210;2023-12-20T12:56:07;7.10;99.90
5697;DHT22;2873;50.966;7.210;2023-12-20T12:58:33;7.00;99.90
5697;DHT22;2873;50.966;7.210;2023-12-20T13:00:58;7.00;99.90
5697;DHT22;2873;50.966;7.210;2023-12-20T13:03:24;7.20;99.90
5697;DHT22;2873;50.966;7.210;2023-12-20T13:05:49;7.20;99.90
5697;DHT22;2873;50.966;7.210;2023-12-20T13:08:15;7.20;99.90
5697;DHT22;2873;50.966;7.210;2023-12-20T13:10:40;7.10;99.90
5697;DHT22;2873;50.966;7.210;2023-12-20T13:13:06;7.20;99.90
5697;DHT22;2873;50.966;7.210;2023-12-20T13:15:31;7.10;99.90
5697;DHT22;2873;50.966;7.210;2023-12-20T13:17:57;7.10;99.90
5697;DHT22;2873;50.966;7.210;2023-12-20T13:20:22;7.10;99.90
5697;DHT22;2873;50.966;7.210;2023-12-20T13:22:48;7.10;99.90
5697;DHT22;2873;50.966;7.210;2023-12-20T13:25:13;7.20;99.90
5697;DHT22;2873;50.966;7.210;2023-12-20T13:27:39;7.20;99.90
5697;DHT22;2873;50.966;7.210;2023-12-20T13:30:05;7.20;99.90
5697;DHT22;2873;50.966;7.210;2023-12-20T13:32:30;7.20;99.90
5697;DHT22;2873;50.966;7.210;2023-12-20T13:34:56;7.20;99.90
5697;DHT22;2873;50.966;7.210;2023-12-20T13:37:21;7.10;99.90
5697;DHT22;2873;50.966;7.210;2023-12-20T13:39:47;7.10;99.90
5697;DHT22;2873;50.966;7.210;2023-12-20T13:42:13;7.10;99.90
5697;DHT22;2873;50.966;7.210;2023-12-20T13:44:39;7.10;99.90
5697;DHT22;2873;50.966;7.210;2023-12-20T13:47:04;7.10;99.90
5697;DHT22;2873;50.966;7.210;2023-12-20T13:49:29;7.10;99.90
5697;DHT22;2873;50.966;7.210;2023-12-20T13:51:55;7.20;99.90
5697;DHT22;2873;50.966;7.210;2023-12-20T13:54:20;7.00;99.90
5697;DHT22;2873;50.966;7.210;2023-12-20T13:56:47;7.00;99.90
5697;DHT22;2873;50.966;7.210;2023-12-20T13:59:13;7.10;99.90
5697;DHT22;2873;50.966;7.210;2023-12-20T14:01:39;7.10;99.90
5697;DHT22;2873;50.966;7.210;2023-12-20T14:04:04;7.10;99.90
5697;DHT22;2873;50.966;7.210;2023-12-20T14:06:30;7.20;99.90
5697;DHT22;2873;50.966;7.210;2023-12-20T14:08:55;7.10;99.90
5697;DHT22;2873;50.966;7.210;2023-12-20T14:11:21;7.10;99.90
5697;DHT22;2873;50.966;7.210;2023-12-20T14:13:46;7.00;99.90
5697;DHT22;2873;50.966;7.210;2023-12-20T14:16:11;7.00;99.90
5697;DHT22;2873;50.966;7.210;2023-12-20T14:18:37;7.20;99.90
5697;DHT22;2873;50.966;7.210;2023-12-20T14:21:03;7.20;99.90
5697;DHT22;2873;50.966;7.210;2023-12-20T14:23:28;7.30;99.90
5697;DHT22;2873;50.966;7.210;2023-12-20T14:25:54;7.30;99.90
5697;DHT22;2873;50.966;7.210;2023-12-20T14:28:21;7.30;99.90
5697;DHT22;2873;50.966;7.210;2023-12-20T14:30:46;7.30;99.90
5697;DHT22;2873;50.966;7.210;2023-12-20T14:33:12;7.30;99.90
5697;DHT22;2873;50.966;7.210;2023-12-20T14:35:37;7.40;99.90
5697;DHT22;2873;50.966;7.210;2023-12-20T14:38:03;7.50;99.90
5697;DHT22;2873;50.966;7.210;2023-12-20T14:40:28;7.60;99.90
5697;DHT22;2873;50.966;7.210;2023-12-20T14:42:54;7.30;99.90
5697;DHT22;2873;50.966;7.210;2023-12-20T14:45:19;7.40;99.90
5697;DHT22;2873;50.966;7.210;2023-12-20T14:47:45;7.40;99.90
5697;DHT22;2873;50.966;7.210;2023-12-20T14:50:13;7.40;99.90
5697;DHT22;2873;50.966;7.210;2023-12-20T14:52:43;7.30;99.90
5697;DHT22;2873;50.966;7.210;2023-12-20T14:55:08;7.40;99.90
5697;DHT22;2873;50.966;7.210;2023-12-20T14:57:34;7.30;99.90
5697;DHT22;2873;50.966;7.210;2023-12-20T14:59:59;7.40;99.90
5697;DHT22;2873;50.966;7.210;2023-12-20T15:02:25;7.40;99.90
5697;DHT22;2873;50.966;7.210;2023-12-20T15:04:50;7.40;99.90
5697;DHT22;2873;50.966;7.210;2023-12-20T15:07:16;7.40;99.90
5697;DHT22;2873;50.966;7.210;2023-12-20T15:09:42;7.40;99.90
5697;DHT22;2873;50.966;7.210;2023-12-20T15:12:11;7.40;99.90
5697;DHT22;2873;50.966;7.210;2023-12-20T15:14:37;7.50;99.90
5697;DHT22;2873;50.966;7.210;2023-12-20T15:17:03;7.40;99.90
5697;DHT22;2873;50.966;7.210;2023-12-20T15:19:28;7.50;99.90
5697;DHT22;2873;50.966;7.210;2023-12-20T15:21:54;7.40;99.90
5697;DHT22;2873;50.966;7.210;2023-12-20T15:24:19;7.50;99.90
5697;DHT22;2873;50.966;7.210;2023-12-20T15:26:52;7.60;99.90
5697;DHT22;2873;50.966;7.210;2023-12-20T15:29:18;7.50;99.90
5697;DHT22;2873;50.966;7.210;2023-12-20T15:31:44;7.50;99.90
5697;DHT22;2873;50.966;7.210;2023-12-20T15:34:10;7.60;99.90
5697;DHT22;2873;50.966;7.210;2023-12-20T15:36:36;7.60;99.90
5697;DHT22;2873;50.966;7.210;2023-12-20T15:39:02;7.60;99.90
5697;DHT22;2873;50.966;7.210;2023-12-20T15:41:28;7.70;99.90
5697;DHT22;2873;50.966;7.210;2023-12-20T15:43:54;7.70;99.90
5697;DHT22;2873;50.966;7.210;2023-12-20T15:46:21;7.80;99.90
5697;DHT22;2873;50.966;7.210;2023-12-20T15:48:46;7.80;99.90
5697;DHT22;2873;50.966;7.210;2023-12-20T15:51:12;7.80;99.90
5697;DHT22;2873;50.966;7.210;2023-12-20T15:53:38;7.70;99.90
5697;DHT22;2873;50.966;7.210;2023-12-20T15:56:04;7.70;99.90
5697;DHT22;2873;50.966;7.210;2023-12-20T15:58:29;7.70;99.90
5697;DHT22;2873;50.966;7.210;2023-12-20T16:00:55;7.60;99.90
5697;DHT22;2873;50.966;7.210;2023-12-20T16:03:21;7.70;99.90
5697;DHT22;2873;50.966;7.210;2023-12-20T16:05:46;7.60;99.90
5697;DHT22;2873;50.966;7.210;2023-12-20T16:08:12;7.60;99.90
5697;DHT22;2873;50.966;7.210;2023-12-20T16:10:37;7.70;99.90
5697;DHT22;2873;50.966;7.210;2023-12-20T16:13:03;7.70;99.90